sensor_id;sensor_type;location;lat;lon;timestamp;temperature;humidity
67133;HTU21D;54052;53.542;49.408;2023-03-12T00:01:53;1.02;68.87
67133;HTU21D;54052;53.542;49.408;2023-03-12T00:04:19;1.12;68.49
67133;HTU21D;54052;53.542;49.408;2023-03-12T00:06:46;1.14;68.62
67133;HTU21D;54052;53.542;49.408;2023-03-12T00:09:12;1.18;68.40
67133;HTU21D;54052;53.542;49.408;2023-03-12T00:11:38;1.14;68.29
67133;HTU21D;54052;53.542;49.408;2023-03-12T00:14:04;1.21;67.84
67133;HTU21D;54052;53.542;49.408;2023-03-12T00:16:31;1.23;68.21
67133;HTU21D;54052;53.542;49.408;2023-03-12T00:18:58;1.22;68.14
67133;HTU21D;54052;53.542;49.408;2023-03-12T00:21:25;1.27;68.02
67133;HTU21D;54052;53.542;49.408;2023-03-12T00:23:51;1.29;67.28
67133;HTU21D;54052;53.542;49.408;2023-03-12T00:26:18;1.32;67.49
67133;HTU21D;54052;53.542;49.408;2023-03-12T00:28:47;1.20;68.60
67133;HTU21D;54052;53.542;49.408;2023-03-12T00:31:14;1.02;68.74
67133;HTU21D;54052;53.542;49.408;2023-03-12T00:33:41;1.09;68.83
67133;HTU21D;54052;53.542;49.408;2023-03-12T00:36:07;1.14;68.30
67133;HTU21D;54052;53.542;49.408;2023-03-12T00:38:34;1.18;67.99
67133;HTU21D;54052;53.542;49.408;2023-03-12T00:41:06;1.23;68.13
67133;HTU21D;54052;53.542;49.408;2023-03-12T00:43:32;1.29;67.83
67133;HTU21D;54052;53.542;49.408;2023-03-12T00:45:58;1.38;66.85
67133;HTU21D;54052;53.542;49.408;2023-03-12T00:48:24;1.46;66.34
67133;HTU21D;54052;53.542;49.408;2023-03-12T00:50:51;1.56;66.10
67133;HTU21D;54052;53.542;49.408;2023-03-12T00:53:17;1.60;66.73
67133;HTU21D;54052;53.542;49.408;2023-03-12T00:55:42;1.58;66.74
67133;HTU21D;54052;53.542;49.408;2023-03-12T00:58:08;1.51;66.10
67133;HTU21D;54052;53.542;49.408;2023-03-12T01:00:35;1.51;65.27
67133;HTU21D;54052;53.542;49.408;2023-03-12T01:03:01;1.48;65.20
67133;HTU21D;54052;53.542;49.408;2023-03-12T01:05:26;1.41;65.02
67133;HTU21D;54052;53.542;49.408;2023-03-12T01:07:52;1.52;64.66
67133;HTU21D;54052;53.542;49.408;2023-03-12T01:10:19;1.53;64.69
67133;HTU21D;54052;53.542;49.408;2023-03-12T01:12:46;1.43;65.25
67133;HTU21D;54052;53.542;49.408;2023-03-12T01:15:15;1.32;64.96
67133;HTU21D;54052;53.542;49.408;2023-03-12T01:17:41;1.33;64.95
67133;HTU21D;54052;53.542;49.408;2023-03-12T01:20:09;1.34;64.90
67133;HTU21D;54052;53.542;49.408;2023-03-12T01:22:35;1.25;65.91
67133;HTU21D;54052;53.542;49.408;2023-03-12T01:25:02;1.17;66.04
67133;HTU21D;54052;53.542;49.408;2023-03-12T01:27:28;1.20;66.42
67133;HTU21D;54052;53.542;49.408;2023-03-12T01:29:54;1.17;66.17
67133;HTU21D;54052;53.542;49.408;2023-03-12T01:32:20;1.10;66.63
67133;HTU21D;54052;53.542;49.408;2023-03-12T01:34:46;1.10;67.23
67133;HTU21D;54052;53.542;49.408;2023-03-12T01:37:12;1.10;67.04
67133;HTU21D;54052;53.542;49.408;2023-03-12T01:39:38;1.09;67.74
67133;HTU21D;54052;53.542;49.408;2023-03-12T01:42:04;1.14;66.44
67133;HTU21D;54052;53.542;49.408;2023-03-12T01:44:57;1.20;66.01
67133;HTU21D;54052;53.542;49.408;2023-03-12T01:47:25;1.33;65.15
67133;HTU21D;54052;53.542;49.408;2023-03-12T01:49:53;1.35;65.46
67133;HTU21D;54052;53.542;49.408;2023-03-12T01:52:22;1.23;66.10
67133;HTU21D;54052;53.542;49.408;2023-03-12T01:55:04;1.29;66.14
67133;HTU21D;54052;53.542;49.408;2023-03-12T01:57:44;1.25;66.95
67133;HTU21D;54052;53.542;49.408;2023-03-12T02:00:15;1.22;67.55
67133;HTU21D;54052;53.542;49.408;2023-03-12T02:02:42;1.14;67.94
67133;HTU21D;54052;53.542;49.408;2023-03-12T02:05:30;1.25;67.25
67133;HTU21D;54052;53.542;49.408;2023-03-12T02:07:57;1.34;66.91
67133;HTU21D;54052;53.542;49.408;2023-03-12T02:10:24;1.37;67.15
67133;HTU21D;54052;53.542;49.408;2023-03-12T02:12:51;1.40;67.06
67133;HTU21D;54052;53.542;49.408;2023-03-12T02:15:17;1.50;66.91
67133;HTU21D;54052;53.542;49.408;2023-03-12T02:17:43;1.57;66.43
67133;HTU21D;54052;53.542;49.408;2023-03-12T02:20:19;1.49;67.81
67133;HTU21D;54052;53.542;49.408;2023-03-12T02:22:51;1.36;68.13
67133;HTU21D;54052;53.542;49.408;2023-03-12T02:25:53;1.42;67.86
67133;HTU21D;54052;53.542;49.408;2023-03-12T02:28:22;1.46;68.17
67133;HTU21D;54052;53.542;49.408;2023-03-12T02:30:52;1.52;67.51
67133;HTU21D;54052;53.542;49.408;2023-03-12T02:33:18;1.66;67.18
67133;HTU21D;54052;53.542;49.408;2023-03-12T02:35:46;1.81;66.73
67133;HTU21D;54052;53.542;49.408;2023-03-12T02:38:42;1.87;66.69
67133;HTU21D;54052;53.542;49.408;2023-03-12T02:41:24;1.86;67.25
67133;HTU21D;54052;53.542;49.408;2023-03-12T02:44:15;1.84;67.35
67133;HTU21D;54052;53.542;49.408;2023-03-12T02:46:46;1.85;67.35
67133;HTU21D;54052;53.542;49.408;2023-03-12T02:49:15;1.77;68.26
67133;HTU21D;54052;53.542;49.408;2023-03-12T02:51:42;1.73;68.49
67133;HTU21D;54052;53.542;49.408;2023-03-12T02:54:09;1.81;68.64
67133;HTU21D;54052;53.542;49.408;2023-03-12T02:56:35;1.88;68.41
67133;HTU21D;54052;53.542;49.408;2023-03-12T02:59:02;1.91;69.00
67133;HTU21D;54052;53.542;49.408;2023-03-12T03:01:29;1.83;69.63
67133;HTU21D;54052;53.542;49.408;2023-03-12T03:03:59;1.70;70.59
67133;HTU21D;54052;53.542;49.408;2023-03-12T03:06:25;1.65;70.96
67133;HTU21D;54052;53.542;49.408;2023-03-12T03:08:51;1.69;71.10
67133;HTU21D;54052;53.542;49.408;2023-03-12T03:11:18;1.54;71.93
67133;HTU21D;54052;53.542;49.408;2023-03-12T03:13:44;1.39;72.75
67133;HTU21D;54052;53.542;49.408;2023-03-12T03:16:10;1.40;73.26
67133;HTU21D;54052;53.542;49.408;2023-03-12T03:18:38;1.46;72.74
67133;HTU21D;54052;53.542;49.408;2023-03-12T03:21:06;1.54;72.60
67133;HTU21D;54052;53.542;49.408;2023-03-12T03:23:33;1.33;73.66
67133;HTU21D;54052;53.542;49.408;2023-03-12T03:25:59;1.20;74.55
67133;HTU21D;54052;53.542;49.408;2023-03-12T03:28:26;1.21;74.64
67133;HTU21D;54052;53.542;49.408;2023-03-12T03:30:55;1.36;73.64
67133;HTU21D;54052;53.542;49.408;2023-03-12T03:33:23;1.52;72.94
67133;HTU21D;54052;53.542;49.408;2023-03-12T03:35:49;1.63;72.30
67133;HTU21D;54052;53.542;49.408;2023-03-12T03:38:15;1.64;72.38
67133;HTU21D;54052;53.542;49.408;2023-03-12T03:40:41;1.76;71.85
67133;HTU21D;54052;53.542;49.408;2023-03-12T03:43:07;1.82;71.83
67133;HTU21D;54052;53.542;49.408;2023-03-12T03:45:33;1.77;71.76
67133;HTU21D;54052;53.542;49.408;2023-03-12T03:47:59;1.78;71.68
67133;HTU21D;54052;53.542;49.408;2023-03-12T03:50:26;1.78;71.72
67133;HTU21D;54052;53.542;49.408;2023-03-12T03:52:52;1.84;71.57
67133;HTU21D;54052;53.542;49.408;2023-03-12T03:55:27;1.86;71.80
67133;HTU21D;54052;53.542;49.408;2023-03-12T03:57:53;1.88;71.95
67133;HTU21D;54052;53.542;49.408;2023-03-12T04:00:20;1.68;72.98
67133;HTU21D;54052;53.542;49.408;2023-03-12T04:02:47;1.63;73.96
67133;HTU21D;54052;53.542;49.408;2023-03-12T04:05:20;1.68;73.77
67133;HTU21D;54052;53.542;49.408;2023-03-12T04:07:47;1.77;74.80
67133;HTU21D;54052;53.542;49.408;2023-03-12T04:10:13;1.71;75.61
67133;HTU21D;54052;53.542;49.408;2023-03-12T04:12:40;1.66;76.28
67133;HTU21D;54052;53.542;49.408;2023-03-12T04:15:06;1.68;76.15
67133;HTU21D;54052;53.542;49.408;2023-03-12T04:17:32;1.83;75.09
67133;HTU21D;54052;53.542;49.408;2023-03-12T04:20:01;1.95;74.99
67133;HTU21D;54052;53.542;49.408;2023-03-12T04:22:28;2.03;74.22
67133;HTU21D;54052;53.542;49.408;2023-03-12T04:25:04;2.10;74.59
67133;HTU21D;54052;53.542;49.408;2023-03-12T04:27:33;2.20;74.36
67133;HTU21D;54052;53.542;49.408;2023-03-12T04:29:59;2.21;74.43
67133;HTU21D;54052;53.542;49.408;2023-03-12T04:32:25;2.23;74.02
67133;HTU21D;54052;53.542;49.408;2023-03-12T04:34:54;2.19;74.69
67133;HTU21D;54052;53.542;49.408;2023-03-12T04:37:20;2.17;74.68
67133;HTU21D;54052;53.542;49.408;2023-03-12T04:39:47;2.19;75.03
67133;HTU21D;54052;53.542;49.408;2023-03-12T04:42:13;2.23;75.51
67133;HTU21D;54052;53.542;49.408;2023-03-12T04:44:40;2.25;75.39
67133;HTU21D;54052;53.542;49.408;2023-03-12T04:47:07;2.27;75.24
67133;HTU21D;54052;53.542;49.408;2023-03-12T04:49:33;2.26;74.47
67133;HTU21D;54052;53.542;49.408;2023-03-12T04:51:59;2.27;75.22
67133;HTU21D;54052;53.542;49.408;2023-03-12T04:54:25;2.26;75.28
67133;HTU21D;54052;53.542;49.408;2023-03-12T04:56:51;2.29;74.92
67133;HTU21D;54052;53.542;49.408;2023-03-12T04:59:17;2.34;75.15
67133;HTU21D;54052;53.542;49.408;2023-03-12T05:01:43;2.45;74.02
67133;HTU21D;54052;53.542;49.408;2023-03-12T05:04:09;2.47;74.64
67133;HTU21D;54052;53.542;49.408;2023-03-12T05:06:35;2.44;74.34
67133;HTU21D;54052;53.542;49.408;2023-03-12T05:09:01;2.51;74.20
67133;HTU21D;54052;53.542;49.408;2023-03-12T05:11:28;2.57;74.58
67133;HTU21D;54052;53.542;49.408;2023-03-12T05:13:54;2.75;73.83
67133;HTU21D;54052;53.542;49.408;2023-03-12T05:16:21;2.93;73.60
67133;HTU21D;54052;53.542;49.408;2023-03-12T05:18:48;3.01;73.43
67133;HTU21D;54052;53.542;49.408;2023-03-12T05:21:17;3.04;73.82
67133;HTU21D;54052;53.542;49.408;2023-03-12T05:23:44;3.04;73.28
67133;HTU21D;54052;53.542;49.408;2023-03-12T05:26:22;3.09;72.77
67133;HTU21D;54052;53.542;49.408;2023-03-12T05:28:48;3.27;72.41
67133;HTU21D;54052;53.542;49.408;2023-03-12T05:31:15;3.26;72.46
67133;HTU21D;54052;53.542;49.408;2023-03-12T05:33:42;3.17;73.09
67133;HTU21D;54052;53.542;49.408;2023-03-12T05:36:09;3.16;73.44
67133;HTU21D;54052;53.542;49.408;2023-03-12T05:38:35;3.29;73.15
67133;HTU21D;54052;53.542;49.408;2023-03-12T05:41:02;3.33;73.25
67133;HTU21D;54052;53.542;49.408;2023-03-12T05:43:28;3.30;74.06
67133;HTU21D;54052;53.542;49.408;2023-03-12T05:45:59;3.36;74.22
67133;HTU21D;54052;53.542;49.408;2023-03-12T05:48:26;3.40;73.99
67133;HTU21D;54052;53.542;49.408;2023-03-12T05:50:52;3.36;74.70
67133;HTU21D;54052;53.542;49.408;2023-03-12T05:53:18;3.49;75.08
67133;HTU21D;54052;53.542;49.408;2023-03-12T05:55:44;3.59;74.76
67133;HTU21D;54052;53.542;49.408;2023-03-12T05:58:10;3.57;75.73
67133;HTU21D;54052;53.542;49.408;2023-03-12T06:00:36;3.69;75.47
67133;HTU21D;54052;53.542;49.408;2023-03-12T06:03:06;3.93;74.57
67133;HTU21D;54052;53.542;49.408;2023-03-12T06:05:34;3.99;75.30
67133;HTU21D;54052;53.542;49.408;2023-03-12T06:08:00;4.20;74.88
67133;HTU21D;54052;53.542;49.408;2023-03-12T06:10:27;4.18;75.60
67133;HTU21D;54052;53.542;49.408;2023-03-12T06:12:53;4.06;76.45
67133;HTU21D;54052;53.542;49.408;2023-03-12T06:15:20;4.04;77.17
67133;HTU21D;54052;53.542;49.408;2023-03-12T06:17:46;4.03;77.24
67133;HTU21D;54052;53.542;49.408;2023-03-12T06:20:12;4.08;77.30
67133;HTU21D;54052;53.542;49.408;2023-03-12T06:22:38;4.21;77.30
67133;HTU21D;54052;53.542;49.408;2023-03-12T06:25:05;4.57;76.47
67133;HTU21D;54052;53.542;49.408;2023-03-12T06:27:32;4.75;75.86
67133;HTU21D;54052;53.542;49.408;2023-03-12T06:29:58;4.62;76.22
67133;HTU21D;54052;53.542;49.408;2023-03-12T06:32:24;4.54;76.77
67133;HTU21D;54052;53.542;49.408;2023-03-12T06:34:50;4.66;76.63
67133;HTU21D;54052;53.542;49.408;2023-03-12T06:37:16;4.78;76.46
67133;HTU21D;54052;53.542;49.408;2023-03-12T06:39:42;4.66;77.05
67133;HTU21D;54052;53.542;49.408;2023-03-12T06:42:10;4.64;77.66
67133;HTU21D;54052;53.542;49.408;2023-03-12T06:44:37;4.54;78.50
67133;HTU21D;54052;53.542;49.408;2023-03-12T06:47:06;4.53;78.83
67133;HTU21D;54052;53.542;49.408;2023-03-12T06:49:33;4.64;78.90
67133;HTU21D;54052;53.542;49.408;2023-03-12T06:52:01;4.74;78.50
67133;HTU21D;54052;53.542;49.408;2023-03-12T06:54:27;4.75;78.41
67133;HTU21D;54052;53.542;49.408;2023-03-12T06:56:53;4.68;78.93
67133;HTU21D;54052;53.542;49.408;2023-03-12T06:59:19;4.71;79.30
67133;HTU21D;54052;53.542;49.408;2023-03-12T07:01:47;4.86;78.39
67133;HTU21D;54052;53.542;49.408;2023-03-12T07:04:13;5.06;77.56
67133;HTU21D;54052;53.542;49.408;2023-03-12T07:06:42;5.08;77.41
67133;HTU21D;54052;53.542;49.408;2023-03-12T07:09:08;5.33;76.82
67133;HTU21D;54052;53.542;49.408;2023-03-12T07:11:35;5.43;76.47
67133;HTU21D;54052;53.542;49.408;2023-03-12T07:14:01;5.48;77.00
67133;HTU21D;54052;53.542;49.408;2023-03-12T07:16:27;5.69;75.79
67133;HTU21D;54052;53.542;49.408;2023-03-12T07:18:53;5.93;74.84
67133;HTU21D;54052;53.542;49.408;2023-03-12T07:21:19;6.04;73.96
67133;HTU21D;54052;53.542;49.408;2023-03-12T07:23:49;5.81;74.91
67133;HTU21D;54052;53.542;49.408;2023-03-12T07:26:15;5.61;75.90
67133;HTU21D;54052;53.542;49.408;2023-03-12T07:28:42;5.30;77.76
67133;HTU21D;54052;53.542;49.408;2023-03-12T07:31:08;5.27;78.15
67133;HTU21D;54052;53.542;49.408;2023-03-12T07:33:34;5.53;77.34
67133;HTU21D;54052;53.542;49.408;2023-03-12T07:36:01;5.81;77.11
67133;HTU21D;54052;53.542;49.408;2023-03-12T07:38:27;6.11;75.72
67133;HTU21D;54052;53.542;49.408;2023-03-12T07:40:55;6.33;75.79
67133;HTU21D;54052;53.542;49.408;2023-03-12T07:43:22;6.57;75.41
67133;HTU21D;54052;53.542;49.408;2023-03-12T07:45:49;6.66;74.96
67133;HTU21D;54052;53.542;49.408;2023-03-12T07:48:16;6.64;74.86
67133;HTU21D;54052;53.542;49.408;2023-03-12T07:50:45;6.70;74.31
67133;HTU21D;54052;53.542;49.408;2023-03-12T07:53:11;6.71;75.02
67133;HTU21D;54052;53.542;49.408;2023-03-12T07:55:43;6.70;75.41
67133;HTU21D;54052;53.542;49.408;2023-03-12T07:58:09;6.78;75.12
67133;HTU21D;54052;53.542;49.408;2023-03-12T08:00:38;6.90;74.73
67133;HTU21D;54052;53.542;49.408;2023-03-12T08:03:28;6.95;74.76
67133;HTU21D;54052;53.542;49.408;2023-03-12T08:06:00;6.78;75.15
67133;HTU21D;54052;53.542;49.408;2023-03-12T08:08:28;6.70;75.61
67133;HTU21D;54052;53.542;49.408;2023-03-12T08:10:54;6.82;75.54
67133;HTU21D;54052;53.542;49.408;2023-03-12T08:13:21;6.66;76.44
67133;HTU21D;54052;53.542;49.408;2023-03-12T08:15:50;6.57;77.10
67133;HTU21D;54052;53.542;49.408;2023-03-12T08:18:17;6.60;76.75
67133;HTU21D;54052;53.542;49.408;2023-03-12T08:20:44;6.80;75.52
67133;HTU21D;54052;53.542;49.408;2023-03-12T08:23:11;6.79;75.99
67133;HTU21D;54052;53.542;49.408;2023-03-12T08:25:37;6.82;76.03
67133;HTU21D;54052;53.542;49.408;2023-03-12T08:28:07;7.00;75.52
67133;HTU21D;54052;53.542;49.408;2023-03-12T08:30:52;7.20;74.31
67133;HTU21D;54052;53.542;49.408;2023-03-12T08:33:20;7.23;74.19
67133;HTU21D;54052;53.542;49.408;2023-03-12T08:35:48;7.19;74.19
67133;HTU21D;54052;53.542;49.408;2023-03-12T08:38:14;7.24;74.66
67133;HTU21D;54052;53.542;49.408;2023-03-12T08:40:41;7.25;74.76
67133;HTU21D;54052;53.542;49.408;2023-03-12T08:43:07;7.42;74.29
67133;HTU21D;54052;53.542;49.408;2023-03-12T08:45:34;7.55;74.04
67133;HTU21D;54052;53.542;49.408;2023-03-12T08:48:09;7.61;73.77
67133;HTU21D;54052;53.542;49.408;2023-03-12T08:50:35;7.42;74.13
67133;HTU21D;54052;53.542;49.408;2023-03-12T08:53:01;7.31;74.62
67133;HTU21D;54052;53.542;49.408;2023-03-12T08:55:27;7.22;75.12
67133;HTU21D;54052;53.542;49.408;2023-03-12T08:57:54;7.18;75.47
67133;HTU21D;54052;53.542;49.408;2023-03-12T09:00:21;7.19;75.36
67133;HTU21D;54052;53.542;49.408;2023-03-12T09:02:47;7.16;75.35
67133;HTU21D;54052;53.542;49.408;2023-03-12T09:05:16;6.90;76.57
67133;HTU21D;54052;53.542;49.408;2023-03-12T09:07:42;6.95;76.31
67133;HTU21D;54052;53.542;49.408;2023-03-12T09:10:08;6.96;76.08
67133;HTU21D;54052;53.542;49.408;2023-03-12T09:12:34;7.07;75.83
67133;HTU21D;54052;53.542;49.408;2023-03-12T09:15:02;7.10;75.48
67133;HTU21D;54052;53.542;49.408;2023-03-12T09:17:28;7.20;75.02
67133;HTU21D;54052;53.542;49.408;2023-03-12T09:19:55;7.30;74.69
67133;HTU21D;54052;53.542;49.408;2023-03-12T09:22:21;7.50;73.80
67133;HTU21D;54052;53.542;49.408;2023-03-12T09:24:47;7.70;72.96
67133;HTU21D;54052;53.542;49.408;2023-03-12T09:27:13;7.78;72.58
67133;HTU21D;54052;53.542;49.408;2023-03-12T09:29:39;7.94;71.67
67133;HTU21D;54052;53.542;49.408;2023-03-12T09:32:06;7.98;71.05
67133;HTU21D;54052;53.542;49.408;2023-03-12T09:34:32;8.04;70.84
67133;HTU21D;54052;53.542;49.408;2023-03-12T09:36:58;8.12;69.94
67133;HTU21D;54052;53.542;49.408;2023-03-12T09:39:24;8.14;69.70
67133;HTU21D;54052;53.542;49.408;2023-03-12T09:41:50;8.16;70.18
67133;HTU21D;54052;53.542;49.408;2023-03-12T09:44:29;8.19;69.61
67133;HTU21D;54052;53.542;49.408;2023-03-12T09:47:00;8.11;69.48
67133;HTU21D;54052;53.542;49.408;2023-03-12T09:49:40;7.98;69.87
67133;HTU21D;54052;53.542;49.408;2023-03-12T09:52:27;8.14;69.42
67133;HTU21D;54052;53.542;49.408;2023-03-12T09:55:13;8.26;69.03
67133;HTU21D;54052;53.542;49.408;2023-03-12T09:57:41;8.39;68.39
67133;HTU21D;54052;53.542;49.408;2023-03-12T10:00:16;8.17;68.92
67133;HTU21D;54052;53.542;49.408;2023-03-12T10:08:16;8.30;68.55
67133;HTU21D;54052;53.542;49.408;2023-03-12T10:16:43;8.22;68.83
67133;HTU21D;54052;53.542;49.408;2023-03-12T10:25:07;7.91;70.58
67133;HTU21D;54052;53.542;49.408;2023-03-12T10:27:45;7.94;70.16
67133;HTU21D;54052;53.542;49.408;2023-03-12T10:30:19;7.90;70.91
67133;HTU21D;54052;53.542;49.408;2023-03-12T10:32:58;7.94;70.54
67133;HTU21D;54052;53.542;49.408;2023-03-12T10:35:28;8.04;70.10
67133;HTU21D;54052;53.542;49.408;2023-03-12T10:38:02;8.17;69.71
67133;HTU21D;54052;53.542;49.408;2023-03-12T10:40:32;8.27;69.49
67133;HTU21D;54052;53.542;49.408;2023-03-12T10:43:02;8.38;68.68
67133;HTU21D;54052;53.542;49.408;2023-03-12T10:45:46;8.45;68.58
67133;HTU21D;54052;53.542;49.408;2023-03-12T10:48:20;8.41;68.78
67133;HTU21D;54052;53.542;49.408;2023-03-12T10:51:08;8.34;69.16
67133;HTU21D;54052;53.542;49.408;2023-03-12T10:53:38;8.42;68.84
67133;HTU21D;54052;53.542;49.408;2023-03-12T10:58:42;8.68;67.55
67133;HTU21D;54052;53.542;49.408;2023-03-12T11:01:19;8.67;67.59
67133;HTU21D;54052;53.542;49.408;2023-03-12T11:03:47;8.65;67.55
67133;HTU21D;54052;53.542;49.408;2023-03-12T11:06:27;8.60;67.79
67133;HTU21D;54052;53.542;49.408;2023-03-12T11:11:35;8.62;67.91
67133;HTU21D;54052;53.542;49.408;2023-03-12T11:14:20;8.57;67.65
67133;HTU21D;54052;53.542;49.408;2023-03-12T11:16:47;8.46;67.91
67133;HTU21D;54052;53.542;49.408;2023-03-12T11:19:26;8.36;68.04
67133;HTU21D;54052;53.542;49.408;2023-03-12T11:21:56;8.20;68.41
67133;HTU21D;54052;53.542;49.408;2023-03-12T11:24:23;8.06;69.04
67133;HTU21D;54052;53.542;49.408;2023-03-12T11:29:33;7.98;69.28
67133;HTU21D;54052;53.542;49.408;2023-03-12T11:32:16;7.83;69.76
67133;HTU21D;54052;53.542;49.408;2023-03-12T11:34:44;7.72;70.29
67133;HTU21D;54052;53.542;49.408;2023-03-12T11:43:02;7.73;70.73
67133;HTU21D;54052;53.542;49.408;2023-03-12T11:45:50;7.67;71.18
67133;HTU21D;54052;53.542;49.408;2023-03-12T11:48:29;7.81;70.61
67133;HTU21D;54052;53.542;49.408;2023-03-12T11:56:28;7.70;71.16
67133;HTU21D;54052;53.542;49.408;2023-03-12T11:59:30;7.67;71.42
67133;HTU21D;54052;53.542;49.408;2023-03-12T12:02:15;7.56;71.67
67133;HTU21D;54052;53.542;49.408;2023-03-12T12:19:09;7.63;71.35
67133;HTU21D;54052;53.542;49.408;2023-03-12T12:24:40;7.68;71.06
67133;HTU21D;54052;53.542;49.408;2023-03-12T12:27:24;7.70;71.24
67133;HTU21D;54052;53.542;49.408;2023-03-12T12:30:35;7.50;72.33
67133;HTU21D;54052;53.542;49.408;2023-03-12T12:35:52;7.56;72.43
67133;HTU21D;54052;53.542;49.408;2023-03-12T12:43:40;7.68;72.04
67133;HTU21D;54052;53.542;49.408;2023-03-12T12:46:11;7.69;72.37
67133;HTU21D;54052;53.542;49.408;2023-03-12T12:48:50;7.59;72.49
67133;HTU21D;54052;53.542;49.408;2023-03-12T12:51:20;7.56;73.03
67133;HTU21D;54052;53.542;49.408;2023-03-12T12:56:59;7.70;72.39
67133;HTU21D;54052;53.542;49.408;2023-03-12T13:02:30;7.68;72.57
67133;HTU21D;54052;53.542;49.408;2023-03-12T13:04:59;7.74;72.51
67133;HTU21D;54052;53.542;49.408;2023-03-12T13:09:53;7.82;72.29
67133;HTU21D;54052;53.542;49.408;2023-03-12T13:14:56;7.77;73.06
67133;HTU21D;54052;53.542;49.408;2023-03-12T13:17:32;7.82;72.97
67133;HTU21D;54052;53.542;49.408;2023-03-12T13:25:44;7.73;73.80
67133;HTU21D;54052;53.542;49.408;2023-03-12T13:30:56;7.62;74.46
67133;HTU21D;54052;53.542;49.408;2023-03-12T13:33:47;7.61;74.71
67133;HTU21D;54052;53.542;49.408;2023-03-12T13:41:40;7.57;75.62
67133;HTU21D;54052;53.542;49.408;2023-03-12T13:47:00;7.55;76.27
67133;HTU21D;54052;53.542;49.408;2023-03-12T13:49:43;7.64;75.95
67133;HTU21D;54052;53.542;49.408;2023-03-12T13:52:22;7.69;75.79
67133;HTU21D;54052;53.542;49.408;2023-03-12T13:55:04;7.62;76.50
67133;HTU21D;54052;53.542;49.408;2023-03-12T13:57:44;7.57;76.74
67133;HTU21D;54052;53.542;49.408;2023-03-12T14:00:14;7.67;76.63
67133;HTU21D;54052;53.542;49.408;2023-03-12T14:03:02;7.69;76.79
67133;HTU21D;54052;53.542;49.408;2023-03-12T14:05:58;7.70;76.84
67133;HTU21D;54052;53.542;49.408;2023-03-12T14:08:56;7.63;77.36
67133;HTU21D;54052;53.542;49.408;2023-03-12T14:17:18;7.65;78.00
67133;HTU21D;54052;53.542;49.408;2023-03-12T14:19:49;7.64;78.20
67133;HTU21D;54052;53.542;49.408;2023-03-12T14:22:17;7.69;78.39
67133;HTU21D;54052;53.542;49.408;2023-03-12T14:24:52;7.72;78.40
67133;HTU21D;54052;53.542;49.408;2023-03-12T14:27:26;7.72;79.05
67133;HTU21D;54052;53.542;49.408;2023-03-12T14:32:33;7.82;79.08
67133;HTU21D;54052;53.542;49.408;2023-03-12T14:35:20;7.83;79.27
67133;HTU21D;54052;53.542;49.408;2023-03-12T14:37:52;7.84;79.44
67133;HTU21D;54052;53.542;49.408;2023-03-12T14:43:25;7.84;79.26
67133;HTU21D;54052;53.542;49.408;2023-03-12T14:45:57;7.82;79.65
67133;HTU21D;54052;53.542;49.408;2023-03-12T14:48:35;7.78;79.56
67133;HTU21D;54052;53.542;49.408;2023-03-12T14:51:03;7.69;79.75
67133;HTU21D;54052;53.542;49.408;2023-03-12T14:53:33;7.59;80.11
67133;HTU21D;54052;53.542;49.408;2023-03-12T14:58:45;7.54;80.32
67133;HTU21D;54052;53.542;49.408;2023-03-12T15:01:13;7.48;80.58
67133;HTU21D;54052;53.542;49.408;2023-03-12T15:03:44;7.48;80.51
67133;HTU21D;54052;53.542;49.408;2023-03-12T15:06:27;7.48;80.67
67133;HTU21D;54052;53.542;49.408;2023-03-12T15:08:55;7.44;80.33
67133;HTU21D;54052;53.542;49.408;2023-03-12T15:11:24;7.41;80.80
67133;HTU21D;54052;53.542;49.408;2023-03-12T15:13:54;7.37;80.95
67133;HTU21D;54052;53.542;49.408;2023-03-12T15:16:21;7.35;81.00
67133;HTU21D;54052;53.542;49.408;2023-03-12T15:18:48;7.39;80.63
67133;HTU21D;54052;53.542;49.408;2023-03-12T15:21:15;7.35;80.56
67133;HTU21D;54052;53.542;49.408;2023-03-12T15:23:45;7.26;80.78
67133;HTU21D;54052;53.542;49.408;2023-03-12T15:26:27;7.27;80.91
67133;HTU21D;54052;53.542;49.408;2023-03-12T15:29:39;7.22;81.36
67133;HTU21D;54052;53.542;49.408;2023-03-12T15:32:00;7.18;81.62
67133;HTU21D;54052;53.542;49.408;2023-03-12T15:34:34;7.14;81.81
67133;HTU21D;54052;53.542;49.408;2023-03-12T15:37:02;7.16;81.80
67133;HTU21D;54052;53.542;49.408;2023-03-12T15:39:35;7.20;81.54
67133;HTU21D;54052;53.542;49.408;2023-03-12T15:42:15;7.25;81.50
67133;HTU21D;54052;53.542;49.408;2023-03-12T15:44:55;7.30;81.16
67133;HTU21D;54052;53.542;49.408;2023-03-12T15:47:27;7.32;81.03
67133;HTU21D;54052;53.542;49.408;2023-03-12T15:50:04;7.32;80.77
67133;HTU21D;54052;53.542;49.408;2023-03-12T15:53:04;7.31;80.88
67133;HTU21D;54052;53.542;49.408;2023-03-12T15:55:33;7.40;80.81
67133;HTU21D;54052;53.542;49.408;2023-03-12T16:01:20;7.49;80.15
67133;HTU21D;54052;53.542;49.408;2023-03-12T16:03:53;7.47;80.07
67133;HTU21D;54052;53.542;49.408;2023-03-12T16:06:22;7.49;80.10
67133;HTU21D;54052;53.542;49.408;2023-03-12T16:08:58;7.56;79.80
67133;HTU21D;54052;53.542;49.408;2023-03-12T16:11:27;7.60;79.69
67133;HTU21D;54052;53.542;49.408;2023-03-12T16:14:01;7.63;79.57
67133;HTU21D;54052;53.542;49.408;2023-03-12T16:16:29;7.65;79.04
67133;HTU21D;54052;53.542;49.408;2023-03-12T16:18:55;7.59;79.29
67133;HTU21D;54052;53.542;49.408;2023-03-12T16:21:21;7.62;79.24
67133;HTU21D;54052;53.542;49.408;2023-03-12T16:23:47;7.68;78.99
67133;HTU21D;54052;53.542;49.408;2023-03-12T16:26:13;7.73;78.92
67133;HTU21D;54052;53.542;49.408;2023-03-12T16:28:40;7.77;78.47
67133;HTU21D;54052;53.542;49.408;2023-03-12T16:31:11;7.81;78.49
67133;HTU21D;54052;53.542;49.408;2023-03-12T16:33:38;7.90;77.89
67133;HTU21D;54052;53.542;49.408;2023-03-12T16:36:15;7.92;78.06
67133;HTU21D;54052;53.542;49.408;2023-03-12T16:38:42;7.94;77.62
67133;HTU21D;54052;53.542;49.408;2023-03-12T16:41:13;8.00;77.64
67133;HTU21D;54052;53.542;49.408;2023-03-12T16:43:45;7.99;77.59
67133;HTU21D;54052;53.542;49.408;2023-03-12T16:46:14;8.04;77.10
67133;HTU21D;54052;53.542;49.408;2023-03-12T16:48:43;8.05;77.11
67133;HTU21D;54052;53.542;49.408;2023-03-12T16:51:13;8.05;77.32
67133;HTU21D;54052;53.542;49.408;2023-03-12T16:53:40;8.13;76.83
67133;HTU21D;54052;53.542;49.408;2023-03-12T16:56:16;8.09;76.62
67133;HTU21D;54052;53.542;49.408;2023-03-12T16:58:45;8.08;76.87
67133;HTU21D;54052;53.542;49.408;2023-03-12T17:01:14;8.13;76.80
67133;HTU21D;54052;53.542;49.408;2023-03-12T17:03:42;8.20;76.47
67133;HTU21D;54052;53.542;49.408;2023-03-12T17:06:24;8.18;76.37
67133;HTU21D;54052;53.542;49.408;2023-03-12T17:08:52;8.17;76.56
67133;HTU21D;54052;53.542;49.408;2023-03-12T17:11:21;8.20;75.85
67133;HTU21D;54052;53.542;49.408;2023-03-12T17:13:55;8.23;76.10
67133;HTU21D;54052;53.542;49.408;2023-03-12T17:16:22;8.30;75.49
67133;HTU21D;54052;53.542;49.408;2023-03-12T17:18:52;0.00;75.40
67133;HTU21D;54052;53.542;49.408;2023-03-12T17:21:19;8.29;75.29